Forester — DIUT — position and weather

sailwx.info

Track history (hours):
 
Tides and Currents Weather Stations Pressure Air Temp Water Temp Dewpoint Dewpoint Depression Visibility Wind Speed Wind Dir Waves Ship Positions

Forester

Last reported at 2017-Apr-23 16:36 UTC. Time now 2017-Apr-24 11:26 UTC.
Position N 43°32' W 001°31'.

Length 100 m; draft 6.7 m.

Type: Ship. MMSI: 211233870.

Date/timePositionNaut miles runAvg speedWind from/ knotsBaromVisibWave heightAir tempDewpointWater temp
2017-Apr-23 16:36N 43°32' W 001°31'0 0.0
2017-Apr-23 16:27N 43°32' W 001°31'0 0.0
2017-Apr-23 15:54N 43°32' W 001°31'0 0.0
2017-Apr-23 09:33N 43°32' W 001°31'0 0.7
2017-Apr-23 09:30N 43°32' W 001°31'2 5.0
2017-Apr-23 09:01N 43°33' W 001°33'1 1.8
2017-Apr-23 08:30N 43°34' W 001°33'0 0.1
2017-Apr-23 08:00N 43°34' W 001°33'0 0.0
2017-Apr-23 07:30N 43°34' W 001°33'0 0.0
2017-Apr-23 07:00N 43°34' W 001°33'0 0.0
2017-Apr-23 06:30N 43°34' W 001°33'0 0.0
2017-Apr-23 06:00N 43°34' W 001°33'0 0.0
2017-Apr-23 05:30N 43°34' W 001°33'0 0.0
2017-Apr-23 05:00N 43°34' W 001°33'0 0.0
2017-Apr-23 04:30N 43°34' W 001°33'0 0.0
2017-Apr-23 04:00N 43°34' W 001°33'0 0.0
2017-Apr-23 03:27N 43°34' W 001°33'0 0.0
2017-Apr-23 03:00N 43°34' W 001°33'0 0.0
2017-Apr-23 02:30N 43°34' W 001°33'0 0.0
2017-Apr-23 02:00N 43°34' W 001°33'0 0.0
2017-Apr-23 00:57N 43°34' W 001°33'0 0.0
2017-Apr-23 00:26N 43°34' W 001°33'0 0.0
2017-Apr-22 23:59N 43°34' W 001°33'0 0.0
2017-Apr-22 23:29N 43°34' W 001°33'0 0.0
2017-Apr-22 22:56N 43°34' W 001°33'0 0.0
2017-Apr-22 22:30N 43°34' W 001°33'0 0.1
2017-Apr-22 22:00N 43°34' W 001°33'0 0.1
2017-Apr-22 21:30N 43°34' W 001°33'0 0.0
2017-Apr-22 21:00N 43°34' W 001°34'0 0.0
2017-Apr-22 20:30N 43°34' W 001°34'0 0.0
2017-Apr-22 20:00N 43°34' W 001°34'0 0.0
2017-Apr-22 19:30N 43°34' W 001°33'0 0.0
2017-Apr-22 19:00N 43°34' W 001°34'0 0.0
2017-Apr-22 18:30N 43°34' W 001°34'0 0.0
2017-Apr-22 18:00N 43°34' W 001°34'0 0.0
2017-Apr-22 17:30N 43°34' W 001°34'0 0.0
2017-Apr-22 17:00N 43°34' W 001°34'0 0.0
2017-Apr-22 16:30N 43°34' W 001°34'0 0.0
2017-Apr-22 16:00N 43°34' W 001°34'0 0.0
2017-Apr-22 15:30N 43°34' W 001°34'0 0.1
2017-Apr-22 15:00N 43°34' W 001°33'2 3.4
2017-Apr-22 14:30N 43°34' W 001°36'1110.3
2017-Apr-22 13:26N 43°33' W 001°51'11710.3
2017-Apr-22 02:05N 43°40' W 004°33'710.3
2017-Apr-22 01:22N 43°41' W 004°43'610.1
2017-Apr-22 00:44N 43°41' W 004°51'2 9.9
2017-Apr-22 00:30N 43°41' W 004°55'510.0
2017-Apr-22 00:00N 43°42' W 005°01'510.2
2017-Apr-21 23:30N 43°42' W 005°09'5 9.8
2017-Apr-21 22:57N 43°43' W 005°16'4 9.4
2017-Apr-21 22:29N 43°43' W 005°22'5 9.4
2017-Apr-21 22:00N 43°43' W 005°28'5 9.2
2017-Apr-21 21:29N 43°44' W 005°35'4 9.1
2017-Apr-21 21:00N 43°44' W 005°41'5 9.4
2017-Apr-21 20:29N 43°44' W 005°48'4 9.0
2017-Apr-21 20:00N 43°45' W 005°53'5 8.9
2017-Apr-21 19:30N 43°45' W 005°60'4 8.9
2017-Apr-21 19:00N 43°46' W 006°06'5 8.9
2017-Apr-21 18:29N 43°46' W 006°12'4 8.4
2017-Apr-21 18:00N 43°47' W 006°18'  
2017-Apr-19 06:34N 39°51' W 009°49'1 7.0
2017-Apr-19 06:27N 39°50' W 009°49'3 7.0
2017-Apr-19 06:00N 39°47' W 009°49'3 7.0
2017-Apr-19 05:30N 39°43' W 009°49'3 7.0
2017-Apr-19 05:00N 39°40' W 009°49'4 7.2
2017-Apr-19 04:30N 39°36' W 009°49'4 7.2
2017-Apr-19 04:00N 39°33' W 009°49'3 7.0
2017-Apr-19 03:30N 39°29' W 009°49'3 6.6
2017-Apr-19 03:00N 39°26' W 009°49'3 6.9
2017-Apr-19 02:30N 39°23' W 009°49'3 6.7
2017-Apr-19 02:00N 39°19' W 009°49'3 6.3
2017-Apr-19 01:30N 39°16' W 009°49'3 6.4
2017-Apr-19 01:00N 39°13' W 009°49'3 6.5
2017-Apr-19 00:30N 39°10' W 009°49'3 6.2
2017-Apr-19 00:00N 39°07' W 009°49'3 6.2
2017-Apr-18 23:30N 39°03' W 009°49'3 6.6
2017-Apr-18 23:00N 39°00' W 009°49'3 6.9
2017-Apr-18 22:30N 38°57' W 009°49'4 7.6
2017-Apr-18 22:00N 38°53' W 009°49'4 7.5
2017-Apr-18 21:30N 38°49' W 009°50'4 7.3
2017-Apr-18 21:00N 38°45' W 009°50'4 7.6
2017-Apr-18 20:30N 38°42' W 009°49'4 8.1
2017-Apr-18 20:00N 38°38' W 009°48'4 8.3
2017-Apr-18 19:30N 38°34' W 009°47'4 8.2
2017-Apr-18 19:00N 38°30' W 009°46'4 8.5
2017-Apr-18 18:30N 38°26' W 009°44'4 8.3
2017-Apr-18 18:00N 38°22' W 009°43'4 7.9
2017-Apr-18 17:30N 38°18' W 009°42'4 7.7
2017-Apr-18 17:00N 38°14' W 009°41'4 7.8
2017-Apr-18 16:30N 38°10' W 009°40'4 7.8
2017-Apr-18 16:00N 38°06' W 009°39'4 7.6
2017-Apr-18 15:30N 38°03' W 009°38'4 7.6
2017-Apr-18 15:00N 37°59' W 009°37'4 7.8
2017-Apr-18 14:30N 37°55' W 009°36'7 7.4
2017-Apr-18 13:30N 37°48' W 009°34'4 7.2
2017-Apr-18 13:00N 37°44' W 009°33'3 7.0
2017-Apr-18 12:30N 37°41' W 009°32'4 7.0
2017-Apr-18 12:00N 37°38' W 009°31'4 7.3
2017-Apr-18 11:29N 37°34' W 009°30'3 7.3
2017-Apr-18 11:00N 37°30' W 009°29'4 7.4
2017-Apr-18 10:30N 37°27' W 009°27'4 7.1
2017-Apr-18 10:00N 37°23' W 009°26'4 7.4
2017-Apr-18 09:30N 37°20' W 009°25'4 7.4
2017-Apr-18 09:00N 37°16' W 009°24'4 7.3
2017-Apr-18 08:27N 37°12' W 009°23'3 7.7
2017-Apr-18 08:00N 37°09' W 009°22'4 7.7
2017-Apr-18 07:30N 37°05' W 009°21'4 7.6
2017-Apr-18 07:00N 37°01' W 009°20'4 7.6
2017-Apr-18 06:30N 36°58' W 009°19'4 7.8
2017-Apr-18 05:58N 36°54' W 009°18'5 7.8
2017-Apr-18 05:22N 36°50' W 009°14'3 7.7
2017-Apr-18 04:57N 36°48' W 009°11'4 7.6
2017-Apr-18 04:22N 36°45' W 009°07'4 8.1
2017-Apr-18 03:55N 36°44' W 009°02'4 8.0
2017-Apr-18 03:27N 36°43' W 008°58'4 8.2
2017-Apr-18 02:59N 36°42' W 008°53'4 8.1
2017-Apr-18 02:30N 36°41' W 008°49'4 8.2
2017-Apr-18 02:00N 36°40' W 008°44'4 8.3
2017-Apr-18 01:30N 36°39' W 008°39'4 8.2
2017-Apr-18 01:00N 36°38' W 008°34'4 8.1
2017-Apr-18 00:30N 36°36' W 008°29'4 7.7
2017-Apr-18 00:00N 36°35' W 008°24'5 7.7
2017-Apr-17 23:24N 36°34' W 008°19'3 7.9
2017-Apr-17 23:00N 36°33' W 008°15'4 7.9
2017-Apr-17 22:30N 36°32' W 008°10'4 7.8
2017-Apr-17 22:00N 36°31' W 008°06'4 7.6
2017-Apr-17 21:30N 36°30' W 008°01'4 7.5
2017-Apr-17 21:00N 36°29' W 007°57'4 7.7
2017-Apr-17 20:30N 36°28' W 007°52'4 7.7
2017-Apr-17 20:00N 36°27' W 007°48'4 7.7
2017-Apr-17 19:30N 36°26' W 007°43'4 7.8
2017-Apr-17 19:00N 36°25' W 007°38'4 7.8
2017-Apr-17 18:30N 36°24' W 007°34'4 7.9
2017-Apr-17 18:00N 36°23' W 007°29'4 7.9
2017-Apr-17 17:30N 36°21' W 007°24'4 7.7
2017-Apr-17 17:00N 36°20' W 007°20'4 7.6
2017-Apr-17 16:30N 36°19' W 007°15'4 7.7
2017-Apr-17 16:00N 36°18' W 007°11'4 7.9
2017-Apr-17 15:30N 36°17' W 007°06'4 7.7
2017-Apr-17 15:00N 36°16' W 007°01'8 7.7
2017-Apr-17 14:00N 36°14' W 006°52'5 7.8
2017-Apr-17 13:20N 36°13' W 006°46'43 7.9
2017-Apr-17 07:52N 36°01' W 005°54'10 7.0
2017-Apr-17 06:28N 35°58' W 005°42'3 7.2
2017-Apr-17 06:00N 35°58' W 005°38'4 7.5
2017-Apr-17 05:30N 35°58' W 005°34'4 7.1
2017-Apr-17 05:00N 35°59' W 005°30'3 6.7
2017-Apr-17 04:30N 35°59' W 005°25'3 6.2
2017-Apr-17 04:00N 35°58' W 005°22'4 7.5
2017-Apr-17 03:30N 35°55' W 005°19'1 2.7
2017-Apr-17 02:59N 35°54' W 005°18'0 0.0
2017-Apr-17 02:29N 35°54' W 005°18'0 0.0
2017-Apr-17 01:59N 35°54' W 005°18'0 0.0
2017-Apr-17 01:29N 35°54' W 005°18'0 0.0
2017-Apr-17 00:59N 35°54' W 005°18'0 0.0
2017-Apr-17 00:29N 35°54' W 005°18'0 0.0
2017-Apr-16 23:59N 35°54' W 005°18'0 0.3
2017-Apr-16 23:30N 35°54' W 005°19'2 3.9
2017-Apr-16 23:00N 35°55' W 005°18'5 9.2
2017-Apr-16 22:30N 35°57' W 005°12'510.3
2017-Apr-16 22:00N 35°58' W 005°06'5 9.8
2017-Apr-16 21:30N 35°58' W 004°60'20410.6
2017-Apr-16 02:19N 36°29' W 000°50'511.2
2017-Apr-16 01:51N 36°30' W 000°44'4910.9
2017-Apr-15 21:20N 36°40' E 000°16'411.0
2017-Apr-15 20:59N 36°41' E 000°21'1311.0
2017-Apr-15 19:49N 36°44' E 000°37'710.8
2017-Apr-15 19:10N 36°45' E 000°45'210.4
2017-Apr-15 19:00N 36°45' E 000°47'510.3
2017-Apr-15 18:29N 36°46' E 000°54'510.3
2017-Apr-15 18:00N 36°47' E 000°60'510.3
2017-Apr-15 17:30N 36°48' E 001°06'510.1
2017-Apr-15 17:00N 36°49' E 001°12'510.2
2017-Apr-15 16:29N 36°50' E 001°19'4710.7
2017-Apr-15 12:06N 36°59' E 002°16'111.1
2017-Apr-15 11:59N 36°59' E 002°18'710.9
2017-Apr-15 11:23N 37°01' E 002°26'410.5
2017-Apr-15 11:00N 37°02' E 002°31'710.3
2017-Apr-15 10:22N 37°02' E 002°39'410.3
2017-Apr-15 09:59N 37°02' E 002°44'510.5
2017-Apr-15 09:30N 37°03' E 002°50'810.7
2017-Apr-15 08:45N 37°05' E 002°60'310.3
2017-Apr-15 08:26N 37°06' E 003°04'410.3
2017-Apr-15 08:00N 37°06' E 003°09'610.3
2017-Apr-15 07:26N 37°08' E 003°17'610.3
2017-Apr-15 06:50N 37°09' E 003°24'10 9.9
2017-Apr-15 05:52N 37°10' E 003°36'1310.0
2017-Apr-15 04:33N 37°10' E 003°53'110.1
2017-Apr-15 04:30N 37°10' E 003°53'810.5
2017-Apr-15 03:47N 37°11' E 004°03'310.5
2017-Apr-15 03:30N 37°11' E 004°06'510.4
2017-Apr-15 03:00N 37°11' E 004°13'510.5
2017-Apr-15 02:30N 37°11' E 004°20'510.8
2017-Apr-15 02:00N 37°12' E 004°26'510.7
2017-Apr-15 01:30N 37°12' E 004°33'510.6
2017-Apr-15 01:00N 37°12' E 004°40'610.6
2017-Apr-15 00:28N 37°13' E 004°47'610.5
2017-Apr-14 23:54N 37°13' E 004°54'410.2
2017-Apr-14 23:30N 37°13' E 004°59'510.0
2017-Apr-14 22:59N 37°13' E 005°06'5 9.8
2017-Apr-14 22:30N 37°14' E 005°12'5 9.7
2017-Apr-14 22:00N 37°14' E 005°18'5 9.6
2017-Apr-14 21:30N 37°14' E 005°24'5 9.6
2017-Apr-14 21:00N 37°14' E 005°30'5 9.6
2017-Apr-14 20:30N 37°14' E 005°36'5 9.8
2017-Apr-14 20:00N 37°14' E 005°42'  
Track history (hours):
 
Tides and Currents Weather Stations Pressure Air Temp Water Temp Dewpoint Dewpoint Depression Visibility Wind Speed Wind Dir Waves Ship Positions

Forester

Last reported at 2017-Apr-23 16:36 UTC. Time now 2017-Apr-24 11:26 UTC.
Position N 43°32' W 001°31'.

Length 100 m; draft 6.7 m.

Type: Ship. MMSI: 211233870.

Date/timePositionNaut miles runAvg speedWind from/ knotsBaromVisibWave heightAir tempDewpointWater temp
2017-Apr-23 16:36N 43°32' W 001°31'0 0.0
2017-Apr-23 16:27N 43°32' W 001°31'0 0.0
2017-Apr-23 15:54N 43°32' W 001°31'0 0.0
2017-Apr-23 09:33N 43°32' W 001°31'0 0.7
2017-Apr-23 09:30N 43°32' W 001°31'2 5.0
2017-Apr-23 09:01N 43°33' W 001°33'1 1.8
2017-Apr-23 08:30N 43°34' W 001°33'0 0.1
2017-Apr-23 08:00N 43°34' W 001°33'0 0.0
2017-Apr-23 07:30N 43°34' W 001°33'0 0.0
2017-Apr-23 07:00N 43°34' W 001°33'0 0.0
2017-Apr-23 06:30N 43°34' W 001°33'0 0.0
2017-Apr-23 06:00N 43°34' W 001°33'0 0.0
2017-Apr-23 05:30N 43°34' W 001°33'0 0.0
2017-Apr-23 05:00N 43°34' W 001°33'0 0.0
2017-Apr-23 04:30N 43°34' W 001°33'0 0.0
2017-Apr-23 04:00N 43°34' W 001°33'0 0.0
2017-Apr-23 03:27N 43°34' W 001°33'0 0.0
2017-Apr-23 03:00N 43°34' W 001°33'0 0.0
2017-Apr-23 02:30N 43°34' W 001°33'0 0.0
2017-Apr-23 02:00N 43°34' W 001°33'0 0.0
2017-Apr-23 00:57N 43°34' W 001°33'0 0.0
2017-Apr-23 00:26N 43°34' W 001°33'0 0.0
2017-Apr-22 23:59N 43°34' W 001°33'0 0.0
2017-Apr-22 23:29N 43°34' W 001°33'0 0.0
2017-Apr-22 22:56N 43°34' W 001°33'0 0.0
2017-Apr-22 22:30N 43°34' W 001°33'0 0.1
2017-Apr-22 22:00N 43°34' W 001°33'0 0.1
2017-Apr-22 21:30N 43°34' W 001°33'0 0.0
2017-Apr-22 21:00N 43°34' W 001°34'0 0.0
2017-Apr-22 20:30N 43°34' W 001°34'0 0.0
2017-Apr-22 20:00N 43°34' W 001°34'0 0.0
2017-Apr-22 19:30N 43°34' W 001°33'0 0.0
2017-Apr-22 19:00N 43°34' W 001°34'0 0.0
2017-Apr-22 18:30N 43°34' W 001°34'0 0.0
2017-Apr-22 18:00N 43°34' W 001°34'0 0.0
2017-Apr-22 17:30N 43°34' W 001°34'0 0.0
2017-Apr-22 17:00N 43°34' W 001°34'0 0.0
2017-Apr-22 16:30N 43°34' W 001°34'0 0.0
2017-Apr-22 16:00N 43°34' W 001°34'0 0.0
2017-Apr-22 15:30N 43°34' W 001°34'0 0.1
2017-Apr-22 15:00N 43°34' W 001°33'2 3.4
2017-Apr-22 14:30N 43°34' W 001°36'1110.3
2017-Apr-22 13:26N 43°33' W 001°51'11710.3
2017-Apr-22 02:05N 43°40' W 004°33'710.3
2017-Apr-22 01:22N 43°41' W 004°43'610.1
2017-Apr-22 00:44N 43°41' W 004°51'2 9.9
2017-Apr-22 00:30N 43°41' W 004°55'510.0
2017-Apr-22 00:00N 43°42' W 005°01'510.2
2017-Apr-21 23:30N 43°42' W 005°09'5 9.8
2017-Apr-21 22:57N 43°43' W 005°16'4 9.4
2017-Apr-21 22:29N 43°43' W 005°22'5 9.4
2017-Apr-21 22:00N 43°43' W 005°28'5 9.2
2017-Apr-21 21:29N 43°44' W 005°35'4 9.1
2017-Apr-21 21:00N 43°44' W 005°41'5 9.4
2017-Apr-21 20:29N 43°44' W 005°48'4 9.0
2017-Apr-21 20:00N 43°45' W 005°53'5 8.9
2017-Apr-21 19:30N 43°45' W 005°60'4 8.9
2017-Apr-21 19:00N 43°46' W 006°06'5 8.9
2017-Apr-21 18:29N 43°46' W 006°12'4 8.4
2017-Apr-21 18:00N 43°47' W 006°18'  
2017-Apr-19 06:34N 39°51' W 009°49'1 7.0
2017-Apr-19 06:27N 39°50' W 009°49'3 7.0
2017-Apr-19 06:00N 39°47' W 009°49'3 7.0
2017-Apr-19 05:30N 39°43' W 009°49'3 7.0
2017-Apr-19 05:00N 39°40' W 009°49'4 7.2
2017-Apr-19 04:30N 39°36' W 009°49'4 7.2
2017-Apr-19 04:00N 39°33' W 009°49'3 7.0
2017-Apr-19 03:30N 39°29' W 009°49'3 6.6
2017-Apr-19 03:00N 39°26' W 009°49'3 6.9
2017-Apr-19 02:30N 39°23' W 009°49'3 6.7
2017-Apr-19 02:00N 39°19' W 009°49'3 6.3
2017-Apr-19 01:30N 39°16' W 009°49'3 6.4
2017-Apr-19 01:00N 39°13' W 009°49'3 6.5
2017-Apr-19 00:30N 39°10' W 009°49'3 6.2
2017-Apr-19 00:00N 39°07' W 009°49'3 6.2
2017-Apr-18 23:30N 39°03' W 009°49'3 6.6
2017-Apr-18 23:00N 39°00' W 009°49'3 6.9
2017-Apr-18 22:30N 38°57' W 009°49'4 7.6
2017-Apr-18 22:00N 38°53' W 009°49'4 7.5
2017-Apr-18 21:30N 38°49' W 009°50'4 7.3
2017-Apr-18 21:00N 38°45' W 009°50'4 7.6
2017-Apr-18 20:30N 38°42' W 009°49'4 8.1
2017-Apr-18 20:00N 38°38' W 009°48'4 8.3
2017-Apr-18 19:30N 38°34' W 009°47'4 8.2
2017-Apr-18 19:00N 38°30' W 009°46'4 8.5
2017-Apr-18 18:30N 38°26' W 009°44'4 8.3
2017-Apr-18 18:00N 38°22' W 009°43'4 7.9
2017-Apr-18 17:30N 38°18' W 009°42'4 7.7
2017-Apr-18 17:00N 38°14' W 009°41'4 7.8
2017-Apr-18 16:30N 38°10' W 009°40'4 7.8
2017-Apr-18 16:00N 38°06' W 009°39'4 7.6
2017-Apr-18 15:30N 38°03' W 009°38'4 7.6
2017-Apr-18 15:00N 37°59' W 009°37'4 7.8
2017-Apr-18 14:30N 37°55' W 009°36'7 7.4
2017-Apr-18 13:30N 37°48' W 009°34'4 7.2
2017-Apr-18 13:00N 37°44' W 009°33'3 7.0
2017-Apr-18 12:30N 37°41' W 009°32'4 7.0
2017-Apr-18 12:00N 37°38' W 009°31'4 7.3
2017-Apr-18 11:29N 37°34' W 009°30'3 7.3
2017-Apr-18 11:00N 37°30' W 009°29'4 7.4
2017-Apr-18 10:30N 37°27' W 009°27'4 7.1
2017-Apr-18 10:00N 37°23' W 009°26'4 7.4
2017-Apr-18 09:30N 37°20' W 009°25'4 7.4
2017-Apr-18 09:00N 37°16' W 009°24'4 7.3
2017-Apr-18 08:27N 37°12' W 009°23'3 7.7
2017-Apr-18 08:00N 37°09' W 009°22'4 7.7
2017-Apr-18 07:30N 37°05' W 009°21'4 7.6
2017-Apr-18 07:00N 37°01' W 009°20'4 7.6
2017-Apr-18 06:30N 36°58' W 009°19'4 7.8
2017-Apr-18 05:58N 36°54' W 009°18'5 7.8
2017-Apr-18 05:22N 36°50' W 009°14'3 7.7
2017-Apr-18 04:57N 36°48' W 009°11'4 7.6
2017-Apr-18 04:22N 36°45' W 009°07'4 8.1
2017-Apr-18 03:55N 36°44' W 009°02'4 8.0
2017-Apr-18 03:27N 36°43' W 008°58'4 8.2
2017-Apr-18 02:59N 36°42' W 008°53'4 8.1
2017-Apr-18 02:30N 36°41' W 008°49'4 8.2
2017-Apr-18 02:00N 36°40' W 008°44'4 8.3
2017-Apr-18 01:30N 36°39' W 008°39'4 8.2
2017-Apr-18 01:00N 36°38' W 008°34'4 8.1
2017-Apr-18 00:30N 36°36' W 008°29'4 7.7
2017-Apr-18 00:00N 36°35' W 008°24'5 7.7
2017-Apr-17 23:24N 36°34' W 008°19'3 7.9
2017-Apr-17 23:00N 36°33' W 008°15'4 7.9
2017-Apr-17 22:30N 36°32' W 008°10'4 7.8
2017-Apr-17 22:00N 36°31' W 008°06'4 7.6
2017-Apr-17 21:30N 36°30' W 008°01'4 7.5
2017-Apr-17 21:00N 36°29' W 007°57'4 7.7
2017-Apr-17 20:30N 36°28' W 007°52'4 7.7
2017-Apr-17 20:00N 36°27' W 007°48'4 7.7
2017-Apr-17 19:30N 36°26' W 007°43'4 7.8
2017-Apr-17 19:00N 36°25' W 007°38'4 7.8
2017-Apr-17 18:30N 36°24' W 007°34'4 7.9
2017-Apr-17 18:00N 36°23' W 007°29'4 7.9
2017-Apr-17 17:30N 36°21' W 007°24'4 7.7
2017-Apr-17 17:00N 36°20' W 007°20'4 7.6
2017-Apr-17 16:30N 36°19' W 007°15'4 7.7
2017-Apr-17 16:00N 36°18' W 007°11'4 7.9
2017-Apr-17 15:30N 36°17' W 007°06'4 7.7
2017-Apr-17 15:00N 36°16' W 007°01'8 7.7
2017-Apr-17 14:00N 36°14' W 006°52'5 7.8
2017-Apr-17 13:20N 36°13' W 006°46'43 7.9
2017-Apr-17 07:52N 36°01' W 005°54'10 7.0
2017-Apr-17 06:28N 35°58' W 005°42'3 7.2
2017-Apr-17 06:00N 35°58' W 005°38'4 7.5
2017-Apr-17 05:30N 35°58' W 005°34'4 7.1
2017-Apr-17 05:00N 35°59' W 005°30'3 6.7
2017-Apr-17 04:30N 35°59' W 005°25'3 6.2
2017-Apr-17 04:00N 35°58' W 005°22'4 7.5
2017-Apr-17 03:30N 35°55' W 005°19'1 2.7
2017-Apr-17 02:59N 35°54' W 005°18'0 0.0
2017-Apr-17 02:29N 35°54' W 005°18'0 0.0
2017-Apr-17 01:59N 35°54' W 005°18'0 0.0
2017-Apr-17 01:29N 35°54' W 005°18'0 0.0
2017-Apr-17 00:59N 35°54' W 005°18'0 0.0
2017-Apr-17 00:29N 35°54' W 005°18'0 0.0
2017-Apr-16 23:59N 35°54' W 005°18'0 0.3
2017-Apr-16 23:30N 35°54' W 005°19'2 3.9
2017-Apr-16 23:00N 35°55' W 005°18'5 9.2
2017-Apr-16 22:30N 35°57' W 005°12'510.3
2017-Apr-16 22:00N 35°58' W 005°06'5 9.8
2017-Apr-16 21:30N 35°58' W 004°60'20410.6
2017-Apr-16 02:19N 36°29' W 000°50'511.2
2017-Apr-16 01:51N 36°30' W 000°44'4910.9
2017-Apr-15 21:20N 36°40' E 000°16'411.0
2017-Apr-15 20:59N 36°41' E 000°21'1311.0
2017-Apr-15 19:49N 36°44' E 000°37'710.8
2017-Apr-15 19:10N 36°45' E 000°45'210.4
2017-Apr-15 19:00N 36°45' E 000°47'510.3
2017-Apr-15 18:29N 36°46' E 000°54'510.3
2017-Apr-15 18:00N 36°47' E 000°60'510.3
2017-Apr-15 17:30N 36°48' E 001°06'510.1
2017-Apr-15 17:00N 36°49' E 001°12'510.2
2017-Apr-15 16:29N 36°50' E 001°19'4710.7
2017-Apr-15 12:06N 36°59' E 002°16'111.1
2017-Apr-15 11:59N 36°59' E 002°18'710.9
2017-Apr-15 11:23N 37°01' E 002°26'410.5
2017-Apr-15 11:00N 37°02' E 002°31'710.3
2017-Apr-15 10:22N 37°02' E 002°39'410.3
2017-Apr-15 09:59N 37°02' E 002°44'510.5
2017-Apr-15 09:30N 37°03' E 002°50'810.7
2017-Apr-15 08:45N 37°05' E 002°60'310.3
2017-Apr-15 08:26N 37°06' E 003°04'410.3
2017-Apr-15 08:00N 37°06' E 003°09'610.3
2017-Apr-15 07:26N 37°08' E 003°17'610.3
2017-Apr-15 06:50N 37°09' E 003°24'10 9.9
2017-Apr-15 05:52N 37°10' E 003°36'1310.0
2017-Apr-15 04:33N 37°10' E 003°53'110.1
2017-Apr-15 04:30N 37°10' E 003°53'810.5
2017-Apr-15 03:47N 37°11' E 004°03'310.5
2017-Apr-15 03:30N 37°11' E 004°06'510.4
2017-Apr-15 03:00N 37°11' E 004°13'510.5
2017-Apr-15 02:30N 37°11' E 004°20'510.8
2017-Apr-15 02:00N 37°12' E 004°26'510.7
2017-Apr-15 01:30N 37°12' E 004°33'510.6
2017-Apr-15 01:00N 37°12' E 004°40'610.6
2017-Apr-15 00:28N 37°13' E 004°47'610.5
2017-Apr-14 23:54N 37°13' E 004°54'410.2
2017-Apr-14 23:30N 37°13' E 004°59'510.0
2017-Apr-14 22:59N 37°13' E 005°06'5 9.8
2017-Apr-14 22:30N 37°14' E 005°12'5 9.7
2017-Apr-14 22:00N 37°14' E 005°18'5 9.6
2017-Apr-14 21:30N 37°14' E 005°24'5 9.6
2017-Apr-14 21:00N 37°14' E 005°30'5 9.6
2017-Apr-14 20:30N 37°14' E 005°36'5 9.8
2017-Apr-14 20:00N 37°14' E 005°42'  

Dump ship's entire track history